sensor_id;sensor_type;location;lat;lon;timestamp;P1;durP1;ratioP1;P2;durP2;ratioP2
8522;SDS011;4299;42.202;24.736;2023-02-11T00:00:43;0.50;;;0.50;;
8522;SDS011;4299;42.202;24.736;2023-02-11T00:03:09;0.60;;;0.60;;
8522;SDS011;4299;42.202;24.736;2023-02-11T00:05:36;0.40;;;0.40;;
8522;SDS011;4299;42.202;24.736;2023-02-11T00:08:05;0.50;;;0.50;;
8522;SDS011;4299;42.202;24.736;2023-02-11T00:10:31;0.40;;;0.40;;
8522;SDS011;4299;42.202;24.736;2023-02-11T00:12:58;0.50;;;0.50;;
8522;SDS011;4299;42.202;24.736;2023-02-11T00:15:24;0.50;;;0.50;;
8522;SDS011;4299;42.202;24.736;2023-02-11T00:17:51;0.47;;;0.47;;
8522;SDS011;4299;42.202;24.736;2023-02-11T00:20:18;0.60;;;0.60;;
8522;SDS011;4299;42.202;24.736;2023-02-11T00:22:44;0.50;;;0.50;;
8522;SDS011;4299;42.202;24.736;2023-02-11T00:25:12;0.50;;;0.50;;
8522;SDS011;4299;42.202;24.736;2023-02-11T00:27:39;0.57;;;0.57;;
8522;SDS011;4299;42.202;24.736;2023-02-11T00:30:06;0.50;;;0.50;;
8522;SDS011;4299;42.202;24.736;2023-02-11T00:32:34;0.40;;;0.40;;
8522;SDS011;4299;42.202;24.736;2023-02-11T00:35:00;0.60;;;0.60;;
8522;SDS011;4299;42.202;24.736;2023-02-11T00:37:27;0.50;;;0.50;;
8522;SDS011;4299;42.202;24.736;2023-02-11T00:39:54;0.50;;;0.50;;
8522;SDS011;4299;42.202;24.736;2023-02-11T00:42:22;0.60;;;0.60;;
8522;SDS011;4299;42.202;24.736;2023-02-11T00:44:48;0.60;;;0.60;;
8522;SDS011;4299;42.202;24.736;2023-02-11T00:47:15;0.60;;;0.60;;
8522;SDS011;4299;42.202;24.736;2023-02-11T00:49:42;0.50;;;0.50;;
8522;SDS011;4299;42.202;24.736;2023-02-11T00:52:08;0.57;;;0.57;;
8522;SDS011;4299;42.202;24.736;2023-02-11T00:54:35;0.50;;;0.50;;
8522;SDS011;4299;42.202;24.736;2023-02-11T00:57:02;0.70;;;0.70;;
8522;SDS011;4299;42.202;24.736;2023-02-11T00:59:30;0.60;;;0.60;;
8522;SDS011;4299;42.202;24.736;2023-02-11T01:01:57;0.60;;;0.60;;
8522;SDS011;4299;42.202;24.736;2023-02-11T01:04:24;0.60;;;0.60;;
8522;SDS011;4299;42.202;24.736;2023-02-11T01:06:50;0.50;;;0.50;;
8522;SDS011;4299;42.202;24.736;2023-02-11T01:09:17;0.53;;;0.53;;
8522;SDS011;4299;42.202;24.736;2023-02-11T01:11:45;0.40;;;0.40;;
8522;SDS011;4299;42.202;24.736;2023-02-11T01:14:12;0.50;;;0.50;;
8522;SDS011;4299;42.202;24.736;2023-02-11T01:16:40;0.50;;;0.50;;
8522;SDS011;4299;42.202;24.736;2023-02-11T01:19:06;0.50;;;0.50;;
8522;SDS011;4299;42.202;24.736;2023-02-11T01:21:33;0.50;;;0.50;;
8522;SDS011;4299;42.202;24.736;2023-02-11T01:24:00;0.50;;;0.50;;
8522;SDS011;4299;42.202;24.736;2023-02-11T01:26:26;0.60;;;0.60;;
8522;SDS011;4299;42.202;24.736;2023-02-11T01:28:53;0.60;;;0.60;;
8522;SDS011;4299;42.202;24.736;2023-02-11T01:31:20;0.50;;;0.50;;
8522;SDS011;4299;42.202;24.736;2023-02-11T01:33:48;0.50;;;0.50;;
8522;SDS011;4299;42.202;24.736;2023-02-11T01:36:14;0.60;;;0.60;;
8522;SDS011;4299;42.202;24.736;2023-02-11T01:38:41;0.50;;;0.50;;
8522;SDS011;4299;42.202;24.736;2023-02-11T01:41:10;0.50;;;0.50;;
8522;SDS011;4299;42.202;24.736;2023-02-11T01:43:39;0.67;;;0.67;;
8522;SDS011;4299;42.202;24.736;2023-02-11T01:46:16;0.50;;;0.50;;
8522;SDS011;4299;42.202;24.736;2023-02-11T01:48:54;0.50;;;0.50;;
8522;SDS011;4299;42.202;24.736;2023-02-11T01:51:23;0.50;;;0.50;;
8522;SDS011;4299;42.202;24.736;2023-02-11T01:53:52;0.50;;;0.50;;
8522;SDS011;4299;42.202;24.736;2023-02-11T01:56:38;0.50;;;0.50;;
8522;SDS011;4299;42.202;24.736;2023-02-11T01:59:29;0.53;;;0.53;;
8522;SDS011;4299;42.202;24.736;2023-02-11T02:02:00;0.50;;;0.50;;
8522;SDS011;4299;42.202;24.736;2023-02-11T02:04:34;0.40;;;0.40;;
8522;SDS011;4299;42.202;24.736;2023-02-11T02:07:07;0.50;;;0.50;;
8522;SDS011;4299;42.202;24.736;2023-02-11T02:09:40;0.40;;;0.40;;
8522;SDS011;4299;42.202;24.736;2023-02-11T02:12:12;0.40;;;0.40;;
8522;SDS011;4299;42.202;24.736;2023-02-11T02:14:39;0.50;;;0.50;;
8522;SDS011;4299;42.202;24.736;2023-02-11T02:17:08;0.50;;;0.50;;
8522;SDS011;4299;42.202;24.736;2023-02-11T02:19:53;0.50;;;0.50;;
8522;SDS011;4299;42.202;24.736;2023-02-11T02:23:10;0.50;;;0.50;;
8522;SDS011;4299;42.202;24.736;2023-02-11T02:25:58;0.50;;;0.50;;
8522;SDS011;4299;42.202;24.736;2023-02-11T02:29:00;0.40;;;0.40;;
8522;SDS011;4299;42.202;24.736;2023-02-11T02:31:48;0.50;;;0.50;;
8522;SDS011;4299;42.202;24.736;2023-02-11T02:34:28;0.50;;;0.50;;
8522;SDS011;4299;42.202;24.736;2023-02-11T02:37:03;0.60;;;0.60;;
8522;SDS011;4299;42.202;24.736;2023-02-11T02:39:34;0.50;;;0.50;;
8522;SDS011;4299;42.202;24.736;2023-02-11T02:42:02;0.40;;;0.40;;
8522;SDS011;4299;42.202;24.736;2023-02-11T02:44:30;0.40;;;0.40;;
8522;SDS011;4299;42.202;24.736;2023-02-11T02:46:57;0.50;;;0.50;;
8522;SDS011;4299;42.202;24.736;2023-02-11T02:49:27;0.50;;;0.50;;
8522;SDS011;4299;42.202;24.736;2023-02-11T02:51:58;0.40;;;0.40;;
8522;SDS011;4299;42.202;24.736;2023-02-11T02:54:54;0.50;;;0.50;;
8522;SDS011;4299;42.202;24.736;2023-02-11T02:57:34;0.40;;;0.40;;
8522;SDS011;4299;42.202;24.736;2023-02-11T03:00:15;0.47;;;0.47;;
8522;SDS011;4299;42.202;24.736;2023-02-11T03:02:51;0.40;;;0.40;;
8522;SDS011;4299;42.202;24.736;2023-02-11T03:05:35;0.50;;;0.50;;
8522;SDS011;4299;42.202;24.736;2023-02-11T03:08:13;0.50;;;0.50;;
8522;SDS011;4299;42.202;24.736;2023-02-11T03:10:45;0.43;;;0.43;;
8522;SDS011;4299;42.202;24.736;2023-02-11T03:13:15;0.40;;;0.40;;
8522;SDS011;4299;42.202;24.736;2023-02-11T03:15:45;0.57;;;0.57;;
8522;SDS011;4299;42.202;24.736;2023-02-11T03:18:16;0.53;;;0.53;;
8522;SDS011;4299;42.202;24.736;2023-02-11T03:20:48;0.40;;;0.40;;
8522;SDS011;4299;42.202;24.736;2023-02-11T03:23:18;0.50;;;0.50;;
8522;SDS011;4299;42.202;24.736;2023-02-11T03:25:49;0.60;;;0.60;;
8522;SDS011;4299;42.202;24.736;2023-02-11T03:28:22;0.50;;;0.50;;
8522;SDS011;4299;42.202;24.736;2023-02-11T03:30:55;0.50;;;0.50;;
8522;SDS011;4299;42.202;24.736;2023-02-11T03:33:33;0.50;;;0.50;;
8522;SDS011;4299;42.202;24.736;2023-02-11T03:36:06;0.60;;;0.60;;
8522;SDS011;4299;42.202;24.736;2023-02-11T03:38:42;0.60;;;0.60;;
8522;SDS011;4299;42.202;24.736;2023-02-11T03:41:11;0.63;;;0.63;;
8522;SDS011;4299;42.202;24.736;2023-02-11T03:43:41;0.63;;;0.63;;
8522;SDS011;4299;42.202;24.736;2023-02-11T03:46:12;0.60;;;0.60;;
8522;SDS011;4299;42.202;24.736;2023-02-11T03:48:43;0.50;;;0.50;;
8522;SDS011;4299;42.202;24.736;2023-02-11T03:51:15;0.60;;;0.60;;
8522;SDS011;4299;42.202;24.736;2023-02-11T03:53:43;0.60;;;0.60;;
8522;SDS011;4299;42.202;24.736;2023-02-11T03:56:13;0.67;;;0.67;;
8522;SDS011;4299;42.202;24.736;2023-02-11T03:58:44;0.50;;;0.50;;
8522;SDS011;4299;42.202;24.736;2023-02-11T04:01:11;0.60;;;0.60;;
8522;SDS011;4299;42.202;24.736;2023-02-11T04:03:38;0.60;;;0.60;;
8522;SDS011;4299;42.202;24.736;2023-02-11T04:06:05;0.50;;;0.50;;
8522;SDS011;4299;42.202;24.736;2023-02-11T04:08:33;0.50;;;0.50;;
8522;SDS011;4299;42.202;24.736;2023-02-11T04:11:00;0.60;;;0.60;;
8522;SDS011;4299;42.202;24.736;2023-02-11T04:13:27;0.60;;;0.60;;
8522;SDS011;4299;42.202;24.736;2023-02-11T04:15:53;0.60;;;0.60;;
8522;SDS011;4299;42.202;24.736;2023-02-11T04:18:20;0.50;;;0.50;;
8522;SDS011;4299;42.202;24.736;2023-02-11T04:20:47;0.60;;;0.60;;
8522;SDS011;4299;42.202;24.736;2023-02-11T04:23:15;0.70;;;0.70;;
8522;SDS011;4299;42.202;24.736;2023-02-11T04:25:43;0.67;;;0.67;;
8522;SDS011;4299;42.202;24.736;2023-02-11T04:28:10;0.60;;;0.60;;
8522;SDS011;4299;42.202;24.736;2023-02-11T04:30:36;0.53;;;0.53;;
8522;SDS011;4299;42.202;24.736;2023-02-11T04:33:05;0.70;;;0.70;;
8522;SDS011;4299;42.202;24.736;2023-02-11T04:35:31;0.50;;;0.50;;
8522;SDS011;4299;42.202;24.736;2023-02-11T04:37:58;0.60;;;0.60;;
8522;SDS011;4299;42.202;24.736;2023-02-11T04:40:25;0.60;;;0.60;;
8522;SDS011;4299;42.202;24.736;2023-02-11T04:42:53;0.60;;;0.60;;
8522;SDS011;4299;42.202;24.736;2023-02-11T04:45:20;0.60;;;0.60;;
8522;SDS011;4299;42.202;24.736;2023-02-11T04:47:46;0.50;;;0.50;;
8522;SDS011;4299;42.202;24.736;2023-02-11T04:50:13;0.50;;;0.50;;
8522;SDS011;4299;42.202;24.736;2023-02-11T04:52:40;0.50;;;0.50;;
8522;SDS011;4299;42.202;24.736;2023-02-11T04:55:06;0.60;;;0.60;;
8522;SDS011;4299;42.202;24.736;2023-02-11T04:57:33;0.50;;;0.50;;
8522;SDS011;4299;42.202;24.736;2023-02-11T05:00:01;0.60;;;0.60;;
8522;SDS011;4299;42.202;24.736;2023-02-11T05:02:28;0.60;;;0.60;;
8522;SDS011;4299;42.202;24.736;2023-02-11T05:04:55;0.57;;;0.57;;
8522;SDS011;4299;42.202;24.736;2023-02-11T05:07:22;0.60;;;0.60;;
8522;SDS011;4299;42.202;24.736;2023-02-11T05:09:49;0.60;;;0.60;;
8522;SDS011;4299;42.202;24.736;2023-02-11T05:12:15;0.60;;;0.60;;
8522;SDS011;4299;42.202;24.736;2023-02-11T05:14:42;0.60;;;0.60;;
8522;SDS011;4299;42.202;24.736;2023-02-11T05:17:10;0.50;;;0.50;;
8522;SDS011;4299;42.202;24.736;2023-02-11T05:19:37;0.50;;;0.50;;
8522;SDS011;4299;42.202;24.736;2023-02-11T05:22:03;0.50;;;0.50;;
8522;SDS011;4299;42.202;24.736;2023-02-11T05:24:30;0.60;;;0.60;;
8522;SDS011;4299;42.202;24.736;2023-02-11T05:26:57;0.60;;;0.60;;
8522;SDS011;4299;42.202;24.736;2023-02-11T05:29:24;0.70;;;0.70;;
8522;SDS011;4299;42.202;24.736;2023-02-11T05:31:51;0.53;;;0.53;;
8522;SDS011;4299;42.202;24.736;2023-02-11T05:34:19;0.50;;;0.50;;
8522;SDS011;4299;42.202;24.736;2023-02-11T05:36:45;0.53;;;0.53;;
8522;SDS011;4299;42.202;24.736;2023-02-11T05:39:12;0.60;;;0.60;;
8522;SDS011;4299;42.202;24.736;2023-02-11T05:41:39;0.60;;;0.60;;
8522;SDS011;4299;42.202;24.736;2023-02-11T05:44:05;0.70;;;0.70;;
8522;SDS011;4299;42.202;24.736;2023-02-11T05:46:32;0.50;;;0.50;;
8522;SDS011;4299;42.202;24.736;2023-02-11T05:48:59;0.60;;;0.60;;
8522;SDS011;4299;42.202;24.736;2023-02-11T05:51:27;0.60;;;0.60;;
8522;SDS011;4299;42.202;24.736;2023-02-11T05:53:54;0.50;;;0.50;;
8522;SDS011;4299;42.202;24.736;2023-02-11T05:56:21;0.50;;;0.50;;
8522;SDS011;4299;42.202;24.736;2023-02-11T05:58:47;0.50;;;0.50;;
8522;SDS011;4299;42.202;24.736;2023-02-11T06:01:14;0.60;;;0.60;;
8522;SDS011;4299;42.202;24.736;2023-02-11T06:03:40;0.47;;;0.47;;
8522;SDS011;4299;42.202;24.736;2023-02-11T06:06:08;0.50;;;0.50;;
8522;SDS011;4299;42.202;24.736;2023-02-11T06:08:37;0.57;;;0.57;;
8522;SDS011;4299;42.202;24.736;2023-02-11T06:11:04;0.60;;;0.60;;
8522;SDS011;4299;42.202;24.736;2023-02-11T06:13:30;0.60;;;0.60;;
8522;SDS011;4299;42.202;24.736;2023-02-11T06:15:58;0.50;;;0.50;;
8522;SDS011;4299;42.202;24.736;2023-02-11T06:18:25;0.60;;;0.60;;
8522;SDS011;4299;42.202;24.736;2023-02-11T06:20:52;0.50;;;0.50;;
8522;SDS011;4299;42.202;24.736;2023-02-11T06:23:19;0.57;;;0.57;;
8522;SDS011;4299;42.202;24.736;2023-02-11T06:25:48;0.50;;;0.50;;
8522;SDS011;4299;42.202;24.736;2023-02-11T06:28:14;0.50;;;0.50;;
8522;SDS011;4299;42.202;24.736;2023-02-11T06:30:41;0.50;;;0.50;;
8522;SDS011;4299;42.202;24.736;2023-02-11T06:33:08;0.50;;;0.50;;
8522;SDS011;4299;42.202;24.736;2023-02-11T06:35:36;0.40;;;0.40;;
8522;SDS011;4299;42.202;24.736;2023-02-11T06:38:03;0.50;;;0.50;;
8522;SDS011;4299;42.202;24.736;2023-02-11T06:40:30;0.40;;;0.40;;
8522;SDS011;4299;42.202;24.736;2023-02-11T06:42:58;0.50;;;0.50;;
8522;SDS011;4299;42.202;24.736;2023-02-11T06:52:44;0.40;;;0.40;;
8522;SDS011;4299;42.202;24.736;2023-02-11T06:55:11;0.50;;;0.50;;
8522;SDS011;4299;42.202;24.736;2023-02-11T06:57:38;0.40;;;0.40;;
8522;SDS011;4299;42.202;24.736;2023-02-11T07:00:07;0.37;;;0.37;;
8522;SDS011;4299;42.202;24.736;2023-02-11T07:02:36;0.40;;;0.40;;
8522;SDS011;4299;42.202;24.736;2023-02-11T07:05:04;0.40;;;0.40;;
8522;SDS011;4299;42.202;24.736;2023-02-11T07:07:31;0.40;;;0.40;;
8522;SDS011;4299;42.202;24.736;2023-02-11T07:09:58;0.40;;;0.40;;
8522;SDS011;4299;42.202;24.736;2023-02-11T07:12:24;0.40;;;0.40;;
8522;SDS011;4299;42.202;24.736;2023-02-11T07:14:51;0.40;;;0.40;;
8522;SDS011;4299;42.202;24.736;2023-02-11T07:17:19;0.40;;;0.40;;
8522;SDS011;4299;42.202;24.736;2023-02-11T07:19:46;0.40;;;0.40;;
8522;SDS011;4299;42.202;24.736;2023-02-11T07:22:12;0.40;;;0.40;;
8522;SDS011;4299;42.202;24.736;2023-02-11T07:24:39;0.40;;;0.40;;
8522;SDS011;4299;42.202;24.736;2023-02-11T07:27:06;0.40;;;0.40;;
8522;SDS011;4299;42.202;24.736;2023-02-11T07:29:33;0.30;;;0.30;;
8522;SDS011;4299;42.202;24.736;2023-02-11T07:32:00;0.40;;;0.40;;
8522;SDS011;4299;42.202;24.736;2023-02-11T07:34:28;0.30;;;0.30;;
8522;SDS011;4299;42.202;24.736;2023-02-11T07:36:54;0.47;;;0.47;;
8522;SDS011;4299;42.202;24.736;2023-02-11T07:39:21;0.40;;;0.40;;
8522;SDS011;4299;42.202;24.736;2023-02-11T07:41:51;0.40;;;0.40;;
8522;SDS011;4299;42.202;24.736;2023-02-11T07:44:20;0.30;;;0.30;;
8522;SDS011;4299;42.202;24.736;2023-02-11T07:46:46;0.40;;;0.40;;
8522;SDS011;4299;42.202;24.736;2023-02-11T07:49:13;0.40;;;0.40;;
8522;SDS011;4299;42.202;24.736;2023-02-11T07:51:41;0.50;;;0.50;;
8522;SDS011;4299;42.202;24.736;2023-02-11T07:54:08;0.30;;;0.30;;
8522;SDS011;4299;42.202;24.736;2023-02-11T07:59:03;0.40;;;0.40;;
8522;SDS011;4299;42.202;24.736;2023-02-11T08:01:29;0.30;;;0.30;;
8522;SDS011;4299;42.202;24.736;2023-02-11T08:03:57;0.40;;;0.40;;
8522;SDS011;4299;42.202;24.736;2023-02-11T08:06:27;0.30;;;0.30;;
8522;SDS011;4299;42.202;24.736;2023-02-11T08:08:57;0.30;;;0.30;;
8522;SDS011;4299;42.202;24.736;2023-02-11T08:11:29;0.30;;;0.30;;
8522;SDS011;4299;42.202;24.736;2023-02-11T08:13:56;0.30;;;0.30;;
8522;SDS011;4299;42.202;24.736;2023-02-11T08:16:23;0.30;;;0.30;;
8522;SDS011;4299;42.202;24.736;2023-02-11T08:18:51;0.30;;;0.30;;
8522;SDS011;4299;42.202;24.736;2023-02-11T08:21:19;0.30;;;0.30;;
8522;SDS011;4299;42.202;24.736;2023-02-11T08:23:46;0.30;;;0.30;;
8522;SDS011;4299;42.202;24.736;2023-02-11T08:26:16;0.30;;;0.30;;
8522;SDS011;4299;42.202;24.736;2023-02-11T08:28:44;0.30;;;0.30;;
8522;SDS011;4299;42.202;24.736;2023-02-11T08:31:15;0.30;;;0.30;;
8522;SDS011;4299;42.202;24.736;2023-02-11T08:33:43;0.30;;;0.30;;
8522;SDS011;4299;42.202;24.736;2023-02-11T08:36:10;0.30;;;0.30;;
8522;SDS011;4299;42.202;24.736;2023-02-11T08:38:38;0.30;;;0.30;;
8522;SDS011;4299;42.202;24.736;2023-02-11T08:41:05;0.30;;;0.30;;
8522;SDS011;4299;42.202;24.736;2023-02-11T08:43:34;0.30;;;0.30;;
8522;SDS011;4299;42.202;24.736;2023-02-11T08:46:01;0.30;;;0.30;;
8522;SDS011;4299;42.202;24.736;2023-02-11T08:48:28;0.30;;;0.30;;
8522;SDS011;4299;42.202;24.736;2023-02-11T08:50:55;0.30;;;0.30;;
8522;SDS011;4299;42.202;24.736;2023-02-11T08:53:22;0.30;;;0.30;;
8522;SDS011;4299;42.202;24.736;2023-02-11T08:55:49;0.30;;;0.30;;
8522;SDS011;4299;42.202;24.736;2023-02-11T08:58:17;0.30;;;0.30;;
8522;SDS011;4299;42.202;24.736;2023-02-11T09:00:46;0.30;;;0.30;;
8522;SDS011;4299;42.202;24.736;2023-02-11T09:03:13;0.20;;;0.20;;
8522;SDS011;4299;42.202;24.736;2023-02-11T09:05:40;0.30;;;0.30;;
8522;SDS011;4299;42.202;24.736;2023-02-11T09:08:10;0.23;;;0.23;;
8522;SDS011;4299;42.202;24.736;2023-02-11T09:10:37;0.20;;;0.20;;
8522;SDS011;4299;42.202;24.736;2023-02-11T09:13:04;0.20;;;0.20;;
8522;SDS011;4299;42.202;24.736;2023-02-11T09:15:31;0.20;;;0.20;;
8522;SDS011;4299;42.202;24.736;2023-02-11T09:18:00;0.20;;;0.20;;
8522;SDS011;4299;42.202;24.736;2023-02-11T09:20:26;0.20;;;0.20;;
8522;SDS011;4299;42.202;24.736;2023-02-11T09:22:53;0.20;;;0.20;;
8522;SDS011;4299;42.202;24.736;2023-02-11T09:25:22;0.23;;;0.23;;
8522;SDS011;4299;42.202;24.736;2023-02-11T09:27:49;0.20;;;0.20;;
8522;SDS011;4299;42.202;24.736;2023-02-11T09:30:17;0.30;;;0.30;;
8522;SDS011;4299;42.202;24.736;2023-02-11T09:32:44;0.20;;;0.20;;
8522;SDS011;4299;42.202;24.736;2023-02-11T09:35:12;0.30;;;0.30;;
8522;SDS011;4299;42.202;24.736;2023-02-11T09:37:39;0.20;;;0.20;;
8522;SDS011;4299;42.202;24.736;2023-02-11T09:40:06;0.20;;;0.20;;
8522;SDS011;4299;42.202;24.736;2023-02-11T09:42:41;0.20;;;0.20;;
8522;SDS011;4299;42.202;24.736;2023-02-11T09:45:12;0.30;;;0.30;;
8522;SDS011;4299;42.202;24.736;2023-02-11T09:47:49;0.20;;;0.20;;
8522;SDS011;4299;42.202;24.736;2023-02-11T09:50:23;0.20;;;0.20;;
8522;SDS011;4299;42.202;24.736;2023-02-11T09:52:55;0.20;;;0.20;;
8522;SDS011;4299;42.202;24.736;2023-02-11T09:55:26;0.20;;;0.20;;
8522;SDS011;4299;42.202;24.736;2023-02-11T09:57:54;0.20;;;0.20;;
8522;SDS011;4299;42.202;24.736;2023-02-11T10:00:23;0.20;;;0.20;;
8522;SDS011;4299;42.202;24.736;2023-02-11T10:03:03;0.20;;;0.20;;
8522;SDS011;4299;42.202;24.736;2023-02-11T10:06:04;0.20;;;0.20;;
8522;SDS011;4299;42.202;24.736;2023-02-11T10:08:46;0.27;;;0.27;;
8522;SDS011;4299;42.202;24.736;2023-02-11T10:11:24;0.20;;;0.20;;
8522;SDS011;4299;42.202;24.736;2023-02-11T10:13:57;0.20;;;0.20;;
8522;SDS011;4299;42.202;24.736;2023-02-11T10:16:37;0.20;;;0.20;;
8522;SDS011;4299;42.202;24.736;2023-02-11T10:19:18;0.20;;;0.20;;
8522;SDS011;4299;42.202;24.736;2023-02-11T10:21:58;0.20;;;0.20;;
8522;SDS011;4299;42.202;24.736;2023-02-11T10:24:33;0.20;;;0.20;;
8522;SDS011;4299;42.202;24.736;2023-02-11T10:27:01;0.20;;;0.20;;
8522;SDS011;4299;42.202;24.736;2023-02-11T10:29:40;0.20;;;0.20;;
8522;SDS011;4299;42.202;24.736;2023-02-11T10:32:17;0.30;;;0.30;;
8522;SDS011;4299;42.202;24.736;2023-02-11T10:34:57;0.20;;;0.20;;
8522;SDS011;4299;42.202;24.736;2023-02-11T10:37:28;0.20;;;0.20;;
8522;SDS011;4299;42.202;24.736;2023-02-11T10:39:55;0.20;;;0.20;;
8522;SDS011;4299;42.202;24.736;2023-02-11T10:42:22;0.20;;;0.20;;
8522;SDS011;4299;42.202;24.736;2023-02-11T10:44:54;0.20;;;0.20;;
8522;SDS011;4299;42.202;24.736;2023-02-11T10:47:24;0.20;;;0.20;;
8522;SDS011;4299;42.202;24.736;2023-02-11T10:49:54;0.20;;;0.20;;
8522;SDS011;4299;42.202;24.736;2023-02-11T10:52:28;0.20;;;0.20;;
8522;SDS011;4299;42.202;24.736;2023-02-11T10:54:57;0.20;;;0.20;;
8522;SDS011;4299;42.202;24.736;2023-02-11T10:57:27;0.20;;;0.20;;
8522;SDS011;4299;42.202;24.736;2023-02-11T10:59:58;0.20;;;0.20;;
8522;SDS011;4299;42.202;24.736;2023-02-11T11:02:30;0.20;;;0.20;;
8522;SDS011;4299;42.202;24.736;2023-02-11T11:05:00;0.20;;;0.20;;
8522;SDS011;4299;42.202;24.736;2023-02-11T11:07:31;0.20;;;0.20;;
8522;SDS011;4299;42.202;24.736;2023-02-11T11:10:00;0.20;;;0.20;;
8522;SDS011;4299;42.202;24.736;2023-02-11T11:12:31;0.20;;;0.20;;
8522;SDS011;4299;42.202;24.736;2023-02-11T11:15:01;0.20;;;0.20;;
8522;SDS011;4299;42.202;24.736;2023-02-11T11:17:40;0.20;;;0.20;;
8522;SDS011;4299;42.202;24.736;2023-02-11T11:23:07;0.20;;;0.20;;
8522;SDS011;4299;42.202;24.736;2023-02-11T11:25:40;0.20;;;0.20;;
8522;SDS011;4299;42.202;24.736;2023-02-11T11:28:17;0.20;;;0.20;;
8522;SDS011;4299;42.202;24.736;2023-02-11T11:30:46;0.20;;;0.20;;
8522;SDS011;4299;42.202;24.736;2023-02-11T11:33:17;0.20;;;0.20;;
8522;SDS011;4299;42.202;24.736;2023-02-11T11:35:53;0.17;;;0.17;;
8522;SDS011;4299;42.202;24.736;2023-02-11T11:38:25;0.20;;;0.20;;
8522;SDS011;4299;42.202;24.736;2023-02-11T11:46:31;0.20;;;0.20;;
8522;SDS011;4299;42.202;24.736;2023-02-11T11:49:06;0.10;;;0.10;;
8522;SDS011;4299;42.202;24.736;2023-02-11T11:51:43;0.20;;;0.20;;
8522;SDS011;4299;42.202;24.736;2023-02-11T11:54:16;0.20;;;0.20;;
8522;SDS011;4299;42.202;24.736;2023-02-11T11:56:48;0.20;;;0.20;;
8522;SDS011;4299;42.202;24.736;2023-02-11T11:59:19;0.10;;;0.10;;
8522;SDS011;4299;42.202;24.736;2023-02-11T12:02:00;0.10;;;0.10;;
8522;SDS011;4299;42.202;24.736;2023-02-11T12:04:44;0.10;;;0.10;;
8522;SDS011;4299;42.202;24.736;2023-02-11T12:07:25;0.20;;;0.20;;
8522;SDS011;4299;42.202;24.736;2023-02-11T12:13:16;0.20;;;0.20;;
8522;SDS011;4299;42.202;24.736;2023-02-11T12:15:54;0.20;;;0.20;;
8522;SDS011;4299;42.202;24.736;2023-02-11T12:18:29;0.20;;;0.20;;
8522;SDS011;4299;42.202;24.736;2023-02-11T12:21:12;0.20;;;0.20;;
8522;SDS011;4299;42.202;24.736;2023-02-11T12:23:54;0.13;;;0.13;;
8522;SDS011;4299;42.202;24.736;2023-02-11T12:26:33;0.10;;;0.10;;
8522;SDS011;4299;42.202;24.736;2023-02-11T12:29:07;0.20;;;0.20;;
8522;SDS011;4299;42.202;24.736;2023-02-11T12:31:46;0.10;;;0.10;;
8522;SDS011;4299;42.202;24.736;2023-02-11T12:34:33;0.10;;;0.10;;
8522;SDS011;4299;42.202;24.736;2023-02-11T12:37:18;0.10;;;0.10;;
8522;SDS011;4299;42.202;24.736;2023-02-11T12:39:58;0.20;;;0.20;;
8522;SDS011;4299;42.202;24.736;2023-02-11T12:42:42;0.20;;;0.20;;
8522;SDS011;4299;42.202;24.736;2023-02-11T12:45:39;0.10;;;0.10;;
8522;SDS011;4299;42.202;24.736;2023-02-11T12:48:24;0.20;;;0.20;;
8522;SDS011;4299;42.202;24.736;2023-02-11T12:51:03;0.10;;;0.10;;
8522;SDS011;4299;42.202;24.736;2023-02-11T12:53:40;0.10;;;0.10;;
8522;SDS011;4299;42.202;24.736;2023-02-11T12:56:23;0.20;;;0.20;;
8522;SDS011;4299;42.202;24.736;2023-02-11T12:58:56;0.13;;;0.13;;
8522;SDS011;4299;42.202;24.736;2023-02-11T13:01:26;0.20;;;0.20;;
8522;SDS011;4299;42.202;24.736;2023-02-11T13:03:56;0.20;;;0.20;;
8522;SDS011;4299;42.202;24.736;2023-02-11T13:06:33;0.20;;;0.20;;
8522;SDS011;4299;42.202;24.736;2023-02-11T13:09:05;0.20;;;0.20;;
8522;SDS011;4299;42.202;24.736;2023-02-11T13:11:43;0.20;;;0.20;;
8522;SDS011;4299;42.202;24.736;2023-02-11T13:14:20;0.20;;;0.20;;
8522;SDS011;4299;42.202;24.736;2023-02-11T13:16:49;0.20;;;0.20;;
8522;SDS011;4299;42.202;24.736;2023-02-11T13:19:20;0.20;;;0.20;;
8522;SDS011;4299;42.202;24.736;2023-02-11T13:22:02;0.20;;;0.20;;
8522;SDS011;4299;42.202;24.736;2023-02-11T13:24:36;0.10;;;0.10;;
8522;SDS011;4299;42.202;24.736;2023-02-11T13:27:10;0.10;;;0.10;;
8522;SDS011;4299;42.202;24.736;2023-02-11T13:35:29;0.20;;;0.20;;
8522;SDS011;4299;42.202;24.736;2023-02-11T13:37:57;0.10;;;0.10;;
8522;SDS011;4299;42.202;24.736;2023-02-11T13:40:26;0.10;;;0.10;;
8522;SDS011;4299;42.202;24.736;2023-02-11T13:42:56;0.20;;;0.20;;
8522;SDS011;4299;42.202;24.736;2023-02-11T13:45:28;0.20;;;0.20;;
8522;SDS011;4299;42.202;24.736;2023-02-11T13:47:56;0.10;;;0.10;;
8522;SDS011;4299;42.202;24.736;2023-02-11T13:50:24;0.10;;;0.10;;
8522;SDS011;4299;42.202;24.736;2023-02-11T13:52:55;0.10;;;0.10;;
8522;SDS011;4299;42.202;24.736;2023-02-11T13:55:25;0.20;;;0.20;;
8522;SDS011;4299;42.202;24.736;2023-02-11T14:00:59;0.10;;;0.10;;
8522;SDS011;4299;42.202;24.736;2023-02-11T14:03:27;0.10;;;0.10;;
8522;SDS011;4299;42.202;24.736;2023-02-11T14:06:17;0.20;;;0.20;;
8522;SDS011;4299;42.202;24.736;2023-02-11T14:17:47;0.10;;;0.10;;
8522;SDS011;4299;42.202;24.736;2023-02-11T14:20:33;0.20;;;0.20;;
8522;SDS011;4299;42.202;24.736;2023-02-11T14:23:02;0.10;;;0.10;;
8522;SDS011;4299;42.202;24.736;2023-02-11T14:25:29;0.20;;;0.20;;
8522;SDS011;4299;42.202;24.736;2023-02-11T14:28:00;0.20;;;0.20;;
8522;SDS011;4299;42.202;24.736;2023-02-11T14:30:37;0.20;;;0.20;;
8522;SDS011;4299;42.202;24.736;2023-02-11T14:33:25;0.20;;;0.20;;
8522;SDS011;4299;42.202;24.736;2023-02-11T14:36:17;0.20;;;0.20;;
8522;SDS011;4299;42.202;24.736;2023-02-11T14:38:59;0.10;;;0.10;;
8522;SDS011;4299;42.202;24.736;2023-02-11T14:41:33;0.20;;;0.20;;
8522;SDS011;4299;42.202;24.736;2023-02-11T14:44:06;0.20;;;0.20;;
8522;SDS011;4299;42.202;24.736;2023-02-11T14:46:42;0.20;;;0.20;;
8522;SDS011;4299;42.202;24.736;2023-02-11T14:49:12;0.20;;;0.20;;
8522;SDS011;4299;42.202;24.736;2023-02-11T14:51:46;0.10;;;0.10;;
8522;SDS011;4299;42.202;24.736;2023-02-11T14:54:14;0.20;;;0.20;;
8522;SDS011;4299;42.202;24.736;2023-02-11T14:56:47;0.20;;;0.20;;
8522;SDS011;4299;42.202;24.736;2023-02-11T14:59:31;0.20;;;0.20;;
8522;SDS011;4299;42.202;24.736;2023-02-11T15:01:58;0.20;;;0.20;;
8522;SDS011;4299;42.202;24.736;2023-02-11T15:04:27;0.10;;;0.10;;
8522;SDS011;4299;42.202;24.736;2023-02-11T15:06:55;0.20;;;0.20;;
8522;SDS011;4299;42.202;24.736;2023-02-11T15:09:23;0.10;;;0.10;;
8522;SDS011;4299;42.202;24.736;2023-02-11T15:11:57;0.10;;;0.10;;
8522;SDS011;4299;42.202;24.736;2023-02-11T15:14:25;0.20;;;0.20;;
8522;SDS011;4299;42.202;24.736;2023-02-11T15:16:53;0.20;;;0.20;;
8522;SDS011;4299;42.202;24.736;2023-02-11T15:19:23;0.20;;;0.20;;
8522;SDS011;4299;42.202;24.736;2023-02-11T15:21:54;0.20;;;0.20;;
8522;SDS011;4299;42.202;24.736;2023-02-11T15:24:23;0.20;;;0.20;;
8522;SDS011;4299;42.202;24.736;2023-02-11T15:26:55;0.20;;;0.20;;
8522;SDS011;4299;42.202;24.736;2023-02-11T15:29:23;0.10;;;0.10;;
8522;SDS011;4299;42.202;24.736;2023-02-11T15:32:01;0.20;;;0.20;;
8522;SDS011;4299;42.202;24.736;2023-02-11T15:34:32;0.20;;;0.20;;
8522;SDS011;4299;42.202;24.736;2023-02-11T15:36:59;0.20;;;0.20;;
8522;SDS011;4299;42.202;24.736;2023-02-11T15:39:30;0.20;;;0.20;;
8522;SDS011;4299;42.202;24.736;2023-02-11T15:42:18;0.20;;;0.20;;
8522;SDS011;4299;42.202;24.736;2023-02-11T15:44:49;0.20;;;0.20;;
8522;SDS011;4299;42.202;24.736;2023-02-11T15:47:35;0.20;;;0.20;;
8522;SDS011;4299;42.202;24.736;2023-02-11T15:50:05;0.20;;;0.20;;
8522;SDS011;4299;42.202;24.736;2023-02-11T15:52:32;0.20;;;0.20;;
8522;SDS011;4299;42.202;24.736;2023-02-11T15:54:59;0.20;;;0.20;;
8522;SDS011;4299;42.202;24.736;2023-02-11T15:57:27;0.20;;;0.20;;
8522;SDS011;4299;42.202;24.736;2023-02-11T15:59:54;0.20;;;0.20;;
8522;SDS011;4299;42.202;24.736;2023-02-11T16:02:24;0.20;;;0.20;;